sensor_id;sensor_type;location;lat;lon;timestamp;pressure;altitude;pressure_sealevel;temperature;humidity
74079;BME280;62437;51.544;-3.276;2022-12-18T00:00:25;101334.56;;;-4.80;70.25
74079;BME280;62437;51.544;-3.276;2022-12-18T00:02:51;101324.73;;;-4.68;70.35
74079;BME280;62437;51.544;-3.276;2022-12-18T00:05:16;101320.04;;;-4.57;70.62
74079;BME280;62437;51.544;-3.276;2022-12-18T00:07:41;101321.30;;;-5.07;72.82
74079;BME280;62437;51.544;-3.276;2022-12-18T00:10:07;101311.97;;;-4.78;72.25
74079;BME280;62437;51.544;-3.276;2022-12-18T00:12:32;101308.67;;;-4.54;71.59
74079;BME280;62437;51.544;-3.276;2022-12-18T00:14:57;101307.34;;;-4.73;70.94
74079;BME280;62437;51.544;-3.276;2022-12-18T00:17:22;101311.80;;;-4.34;69.94
74079;BME280;62437;51.544;-3.276;2022-12-18T00:19:47;101305.33;;;-4.52;69.14
74079;BME280;62437;51.544;-3.276;2022-12-18T00:22:13;101304.22;;;-4.47;69.04
74079;BME280;62437;51.544;-3.276;2022-12-18T00:24:39;101300.58;;;-4.64;70.56
74079;BME280;62437;51.544;-3.276;2022-12-18T00:27:04;101290.17;;;-4.55;69.52
74079;BME280;62437;51.544;-3.276;2022-12-18T00:29:30;101279.58;;;-4.28;68.33
74079;BME280;62437;51.544;-3.276;2022-12-18T00:31:55;101279.42;;;-4.47;69.19
74079;BME280;62437;51.544;-3.276;2022-12-18T00:34:21;101282.38;;;-4.73;70.95
74079;BME280;62437;51.544;-3.276;2022-12-18T00:36:47;101284.19;;;-4.98;70.77
74079;BME280;62437;51.544;-3.276;2022-12-18T00:39:11;101286.51;;;-4.22;69.62
74079;BME280;62437;51.544;-3.276;2022-12-18T00:41:37;101277.08;;;-4.60;70.60
74079;BME280;62437;51.544;-3.276;2022-12-18T00:44:03;101277.81;;;-4.48;69.92
74079;BME280;62437;51.544;-3.276;2022-12-18T00:46:28;101268.65;;;-5.15;74.04
74079;BME280;62437;51.544;-3.276;2022-12-18T00:48:53;101270.94;;;-5.09;73.51
74079;BME280;62437;51.544;-3.276;2022-12-18T00:51:18;101274.05;;;-4.45;72.20
74079;BME280;62437;51.544;-3.276;2022-12-18T00:53:43;101274.85;;;-4.37;70.66
74079;BME280;62437;51.544;-3.276;2022-12-18T00:56:09;101273.84;;;-4.09;69.61
74079;BME280;62437;51.544;-3.276;2022-12-18T00:58:35;101276.77;;;-4.36;69.31
74079;BME280;62437;51.544;-3.276;2022-12-18T01:01:00;101272.11;;;-3.88;67.33
74079;BME280;62437;51.544;-3.276;2022-12-18T01:03:25;101278.55;;;-4.05;68.12
74079;BME280;62437;51.544;-3.276;2022-12-18T01:05:50;101280.29;;;-4.16;68.81
74079;BME280;62437;51.544;-3.276;2022-12-18T01:08:16;101279.87;;;-4.09;67.85
74079;BME280;62437;51.544;-3.276;2022-12-18T01:10:41;101282.09;;;-4.22;67.49
74079;BME280;62437;51.544;-3.276;2022-12-18T01:13:07;101283.96;;;-4.25;68.22
74079;BME280;62437;51.544;-3.276;2022-12-18T01:15:32;101280.09;;;-4.37;68.48
74079;BME280;62437;51.544;-3.276;2022-12-18T01:17:57;101282.85;;;-4.05;68.02
74079;BME280;62437;51.544;-3.276;2022-12-18T01:20:23;101285.89;;;-4.21;67.45
74079;BME280;62437;51.544;-3.276;2022-12-18T01:22:48;101287.04;;;-3.84;65.89
74079;BME280;62437;51.544;-3.276;2022-12-18T01:25:14;101291.42;;;-4.24;67.21
74079;BME280;62437;51.544;-3.276;2022-12-18T01:27:39;101292.61;;;-4.72;70.36
74079;BME280;62437;51.544;-3.276;2022-12-18T01:30:06;101294.64;;;-5.05;72.17
74079;BME280;62437;51.544;-3.276;2022-12-18T01:32:31;101289.65;;;-4.77;71.10
74079;BME280;62437;51.544;-3.276;2022-12-18T01:34:56;101276.22;;;-4.40;69.82
74079;BME280;62437;51.544;-3.276;2022-12-18T01:37:21;101266.19;;;-4.56;70.51
74079;BME280;62437;51.544;-3.276;2022-12-18T01:39:46;101249.63;;;-4.61;70.31
74079;BME280;62437;51.544;-3.276;2022-12-18T01:42:13;101250.70;;;-4.64;70.58
74079;BME280;62437;51.544;-3.276;2022-12-18T01:44:54;101251.21;;;-4.82;71.82
74079;BME280;62437;51.544;-3.276;2022-12-18T01:47:02;101254.17;;;-4.89;71.15
74079;BME280;62437;51.544;-3.276;2022-12-18T01:49:27;101241.32;;;-4.30;71.04
74079;BME280;62437;51.544;-3.276;2022-12-18T01:51:53;101233.74;;;-4.20;68.29
74079;BME280;62437;51.544;-3.276;2022-12-18T01:54:18;101228.28;;;-4.35;67.98
74079;BME280;62437;51.544;-3.276;2022-12-18T01:56:44;101234.80;;;-3.97;67.65
74079;BME280;62437;51.544;-3.276;2022-12-18T01:59:10;101235.89;;;-4.52;68.83
74079;BME280;62437;51.544;-3.276;2022-12-18T02:01:35;101231.80;;;-4.37;69.13
74079;BME280;62437;51.544;-3.276;2022-12-18T02:06:29;101230.12;;;-4.41;69.26
74079;BME280;62437;51.544;-3.276;2022-12-18T02:09:04;101228.42;;;-4.16;68.61
74079;BME280;62437;51.544;-3.276;2022-12-18T02:11:22;101220.44;;;-4.27;68.17
74079;BME280;62437;51.544;-3.276;2022-12-18T02:13:49;101219.06;;;-4.14;67.42
74079;BME280;62437;51.544;-3.276;2022-12-18T02:16:15;101218.73;;;-4.11;67.45
74079;BME280;62437;51.544;-3.276;2022-12-18T02:18:36;101222.14;;;-3.94;68.26
74079;BME280;62437;51.544;-3.276;2022-12-18T02:21:03;101231.87;;;-4.12;68.43
74079;BME280;62437;51.544;-3.276;2022-12-18T02:23:37;101235.88;;;-4.35;69.43
74079;BME280;62437;51.544;-3.276;2022-12-18T02:26:05;101230.04;;;-4.35;69.76
74079;BME280;62437;51.544;-3.276;2022-12-18T02:28:16;101231.82;;;-4.61;70.55
74079;BME280;62437;51.544;-3.276;2022-12-18T02:30:41;101233.62;;;-4.04;70.00
74079;BME280;62437;51.544;-3.276;2022-12-18T02:33:07;101235.44;;;-3.96;68.51
74079;BME280;62437;51.544;-3.276;2022-12-18T02:35:32;101233.83;;;-3.91;69.35
74079;BME280;62437;51.544;-3.276;2022-12-18T02:37:57;101233.84;;;-4.33;69.57
74079;BME280;62437;51.544;-3.276;2022-12-18T02:40:23;101228.80;;;-3.81;69.28
74079;BME280;62437;51.544;-3.276;2022-12-18T02:42:46;101224.86;;;-3.88;69.91
74079;BME280;62437;51.544;-3.276;2022-12-18T02:45:12;101221.08;;;-3.80;68.87
74079;BME280;62437;51.544;-3.276;2022-12-18T02:47:40;101214.65;;;-4.01;71.23
74079;BME280;62437;51.544;-3.276;2022-12-18T02:50:10;101213.78;;;-4.14;70.84
74079;BME280;62437;51.544;-3.276;2022-12-18T02:52:31;101222.90;;;-4.16;71.15
74079;BME280;62437;51.544;-3.276;2022-12-18T02:55:00;101223.44;;;-4.17;71.31
74079;BME280;62437;51.544;-3.276;2022-12-18T02:57:23;101225.67;;;-4.30;72.20
74079;BME280;62437;51.544;-3.276;2022-12-18T02:59:51;101218.08;;;-4.13;71.38
74079;BME280;62437;51.544;-3.276;2022-12-18T03:02:17;101213.79;;;-3.95;70.88
74079;BME280;62437;51.544;-3.276;2022-12-18T03:04:38;101214.83;;;-3.63;69.69
74079;BME280;62437;51.544;-3.276;2022-12-18T03:07:04;101214.88;;;-3.63;69.88
74079;BME280;62437;51.544;-3.276;2022-12-18T03:09:31;101208.79;;;-4.27;72.42
74079;BME280;62437;51.544;-3.276;2022-12-18T03:11:56;101195.33;;;-3.81;69.96
74079;BME280;62437;51.544;-3.276;2022-12-18T03:14:16;101186.36;;;-3.86;70.33
74079;BME280;62437;51.544;-3.276;2022-12-18T03:16:41;101179.42;;;-3.26;68.49
74079;BME280;62437;51.544;-3.276;2022-12-18T03:19:09;101183.29;;;-3.56;69.61
74079;BME280;62437;51.544;-3.276;2022-12-18T03:21:35;101183.56;;;-4.00;71.51
74079;BME280;62437;51.544;-3.276;2022-12-18T03:23:57;101174.07;;;-4.14;72.50
74079;BME280;62437;51.544;-3.276;2022-12-18T03:26:24;101177.38;;;-3.74;71.15
74079;BME280;62437;51.544;-3.276;2022-12-18T03:28:51;101170.84;;;-3.98;72.73
74079;BME280;62437;51.544;-3.276;2022-12-18T03:31:14;101158.83;;;-3.93;71.51
74079;BME280;62437;51.544;-3.276;2022-12-18T03:33:42;101161.71;;;-3.89;72.57
74079;BME280;62437;51.544;-3.276;2022-12-18T03:36:04;101157.94;;;-4.22;72.88
74079;BME280;62437;51.544;-3.276;2022-12-18T03:38:29;101149.02;;;-3.68;70.89
74079;BME280;62437;51.544;-3.276;2022-12-18T03:41:01;101152.12;;;-4.30;72.95
74079;BME280;62437;51.544;-3.276;2022-12-18T03:43:30;101137.95;;;-4.44;74.71
74079;BME280;62437;51.544;-3.276;2022-12-18T03:45:51;101114.84;;;-4.45;74.32
74079;BME280;62437;51.544;-3.276;2022-12-18T03:48:16;101109.47;;;-3.83;73.99
74079;BME280;62437;51.544;-3.276;2022-12-18T03:50:39;101104.03;;;-4.05;73.20
74079;BME280;62437;51.544;-3.276;2022-12-18T03:53:06;101104.48;;;-4.21;74.15
74079;BME280;62437;51.544;-3.276;2022-12-18T03:55:28;101098.91;;;-3.98;73.89
74079;BME280;62437;51.544;-3.276;2022-12-18T03:57:52;101084.56;;;-3.45;70.39
74079;BME280;62437;51.544;-3.276;2022-12-18T04:00:18;101076.37;;;-3.56;70.76
74079;BME280;62437;51.544;-3.276;2022-12-18T04:02:45;101072.14;;;-3.41;71.36
74079;BME280;62437;51.544;-3.276;2022-12-18T04:05:08;101071.37;;;-3.01;68.64
74079;BME280;62437;51.544;-3.276;2022-12-18T04:07:32;101067.35;;;-3.08;69.71
74079;BME280;62437;51.544;-3.276;2022-12-18T04:09:59;101069.49;;;-3.70;72.94
74079;BME280;62437;51.544;-3.276;2022-12-18T04:12:24;101062.25;;;-3.73;72.64
74079;BME280;62437;51.544;-3.276;2022-12-18T04:14:49;101057.95;;;-3.73;72.63
74079;BME280;62437;51.544;-3.276;2022-12-18T04:17:14;101064.47;;;-3.66;71.67
74079;BME280;62437;51.544;-3.276;2022-12-18T04:19:39;101050.30;;;-3.33;71.39
74079;BME280;62437;51.544;-3.276;2022-12-18T04:22:04;101057.92;;;-3.51;71.54
74079;BME280;62437;51.544;-3.276;2022-12-18T04:24:30;101046.84;;;-4.07;73.79
74079;BME280;62437;51.544;-3.276;2022-12-18T04:26:55;101052.19;;;-4.30;76.74
74079;BME280;62437;51.544;-3.276;2022-12-18T04:29:21;101046.68;;;-4.07;75.06
74079;BME280;62437;51.544;-3.276;2022-12-18T04:31:46;101046.61;;;-4.01;75.66
74079;BME280;62437;51.544;-3.276;2022-12-18T04:34:12;101050.43;;;-4.06;75.36
74079;BME280;62437;51.544;-3.276;2022-12-18T04:36:37;101051.31;;;-3.83;73.73
74079;BME280;62437;51.544;-3.276;2022-12-18T04:39:03;101038.86;;;-3.77;73.45
74079;BME280;62437;51.544;-3.276;2022-12-18T04:41:28;101040.80;;;-4.18;76.02
74079;BME280;62437;51.544;-3.276;2022-12-18T04:43:54;101032.36;;;-3.89;74.28
74079;BME280;62437;51.544;-3.276;2022-12-18T04:46:20;101029.18;;;-4.45;78.33
74079;BME280;62437;51.544;-3.276;2022-12-18T04:48:46;101026.50;;;-4.39;77.05
74079;BME280;62437;51.544;-3.276;2022-12-18T04:51:11;101019.46;;;-3.58;74.93
74079;BME280;62437;51.544;-3.276;2022-12-18T04:53:36;101011.43;;;-3.80;74.78
74079;BME280;62437;51.544;-3.276;2022-12-18T04:56:04;101009.15;;;-4.02;75.53
74079;BME280;62437;51.544;-3.276;2022-12-18T04:58:27;100993.19;;;-4.09;75.39
74079;BME280;62437;51.544;-3.276;2022-12-18T05:00:51;100995.31;;;-3.89;74.95
74079;BME280;62437;51.544;-3.276;2022-12-18T05:03:17;100978.83;;;-3.83;74.46
74079;BME280;62437;51.544;-3.276;2022-12-18T05:05:42;100968.30;;;-3.37;73.02
74079;BME280;62437;51.544;-3.276;2022-12-18T05:08:08;100954.11;;;-3.44;74.05
74079;BME280;62437;51.544;-3.276;2022-12-18T05:10:33;100965.26;;;-3.99;76.29
74079;BME280;62437;51.544;-3.276;2022-12-18T05:12:58;100969.23;;;-3.95;75.29
74079;BME280;62437;51.544;-3.276;2022-12-18T05:15:27;100962.31;;;-3.93;75.03
74079;BME280;62437;51.544;-3.276;2022-12-18T05:17:50;100962.56;;;-3.87;76.99
74079;BME280;62437;51.544;-3.276;2022-12-18T05:20:15;100968.61;;;-3.62;74.78
74079;BME280;62437;51.544;-3.276;2022-12-18T05:22:41;100971.10;;;-3.60;76.26
74079;BME280;62437;51.544;-3.276;2022-12-18T05:25:07;100967.86;;;-3.97;76.84
74079;BME280;62437;51.544;-3.276;2022-12-18T05:27:32;100961.63;;;-3.71;75.19
74079;BME280;62437;51.544;-3.276;2022-12-18T05:29:57;100958.75;;;-3.53;72.96
74079;BME280;62437;51.544;-3.276;2022-12-18T05:32:22;100955.79;;;-3.38;73.44
74079;BME280;62437;51.544;-3.276;2022-12-18T05:34:48;100957.92;;;-3.35;73.84
74079;BME280;62437;51.544;-3.276;2022-12-18T05:37:13;100956.93;;;-3.53;72.38
74079;BME280;62437;51.544;-3.276;2022-12-18T05:39:38;100956.61;;;-3.05;72.30
74079;BME280;62437;51.544;-3.276;2022-12-18T05:42:04;100954.49;;;-2.72;70.33
74079;BME280;62437;51.544;-3.276;2022-12-18T05:44:29;100956.50;;;-2.93;70.65
74079;BME280;62437;51.544;-3.276;2022-12-18T05:46:54;100964.04;;;-3.13;73.10
74079;BME280;62437;51.544;-3.276;2022-12-18T05:49:19;100954.17;;;-3.47;72.52
74079;BME280;62437;51.544;-3.276;2022-12-18T05:51:45;100956.86;;;-3.15;72.59
74079;BME280;62437;51.544;-3.276;2022-12-18T05:54:10;100952.90;;;-2.99;71.16
74079;BME280;62437;51.544;-3.276;2022-12-18T05:56:36;100954.50;;;-2.65;69.70
74079;BME280;62437;51.544;-3.276;2022-12-18T05:59:02;100952.96;;;-3.98;77.13
74079;BME280;62437;51.544;-3.276;2022-12-18T06:01:27;100958.66;;;-3.31;74.58
74079;BME280;62437;51.544;-3.276;2022-12-18T06:03:52;100945.59;;;-3.26;73.28
74079;BME280;62437;51.544;-3.276;2022-12-18T06:06:20;100940.15;;;-3.01;71.77
74079;BME280;62437;51.544;-3.276;2022-12-18T06:08:44;100943.49;;;-2.95;71.12
74079;BME280;62437;51.544;-3.276;2022-12-18T06:11:09;100956.87;;;-3.15;72.04
74079;BME280;62437;51.544;-3.276;2022-12-18T06:13:34;100967.98;;;-3.99;75.29
74079;BME280;62437;51.544;-3.276;2022-12-18T06:16:02;100963.46;;;-3.40;74.17
74079;BME280;62437;51.544;-3.276;2022-12-18T06:18:25;100971.29;;;-3.47;74.28
74079;BME280;62437;51.544;-3.276;2022-12-18T06:20:55;100957.27;;;-3.53;75.73
74079;BME280;62437;51.544;-3.276;2022-12-18T06:23:15;100965.06;;;-3.70;75.32
74079;BME280;62437;51.544;-3.276;2022-12-18T06:25:41;100964.49;;;-3.56;75.13
74079;BME280;62437;51.544;-3.276;2022-12-18T06:28:07;100961.89;;;-3.30;74.08
74079;BME280;62437;51.544;-3.276;2022-12-18T06:30:32;100968.30;;;-3.82;74.49
74079;BME280;62437;51.544;-3.276;2022-12-18T06:32:58;100956.91;;;-3.15;73.74
74079;BME280;62437;51.544;-3.276;2022-12-18T06:35:24;100951.80;;;-2.79;72.00
74079;BME280;62437;51.544;-3.276;2022-12-18T06:37:48;100945.38;;;-2.61;71.82
74079;BME280;62437;51.544;-3.276;2022-12-18T06:40:14;100944.40;;;-2.92;72.09
74079;BME280;62437;51.544;-3.276;2022-12-18T06:42:39;100943.95;;;-3.82;76.05
74079;BME280;62437;51.544;-3.276;2022-12-18T06:45:06;100941.80;;;-4.07;77.38
74079;BME280;62437;51.544;-3.276;2022-12-18T06:47:31;100938.73;;;-3.55;75.29
74079;BME280;62437;51.544;-3.276;2022-12-18T06:49:56;100931.02;;;-3.59;74.57
74079;BME280;62437;51.544;-3.276;2022-12-18T06:52:21;100926.11;;;-3.49;74.87
74079;BME280;62437;51.544;-3.276;2022-12-18T06:54:46;100920.07;;;-3.28;73.95
74079;BME280;62437;51.544;-3.276;2022-12-18T06:57:12;100919.56;;;-3.32;74.69
74079;BME280;62437;51.544;-3.276;2022-12-18T06:59:37;100923.18;;;-3.11;74.06
74079;BME280;62437;51.544;-3.276;2022-12-18T07:02:02;100931.57;;;-3.22;74.77
74079;BME280;62437;51.544;-3.276;2022-12-18T07:04:29;100933.05;;;-3.75;77.44
74079;BME280;62437;51.544;-3.276;2022-12-18T07:06:53;100926.44;;;-3.60;77.25
74079;BME280;62437;51.544;-3.276;2022-12-18T07:09:18;100929.12;;;-3.80;78.20
74079;BME280;62437;51.544;-3.276;2022-12-18T07:11:43;100924.37;;;-4.12;78.70
74079;BME280;62437;51.544;-3.276;2022-12-18T07:14:08;100915.75;;;-4.06;78.46
74079;BME280;62437;51.544;-3.276;2022-12-18T07:16:34;100910.97;;;-4.09;77.61
74079;BME280;62437;51.544;-3.276;2022-12-18T07:19:00;100900.53;;;-4.18;79.07
74079;BME280;62437;51.544;-3.276;2022-12-18T07:21:25;100906.88;;;-4.03;79.02
74079;BME280;62437;51.544;-3.276;2022-12-18T07:23:51;100906.21;;;-3.44;75.83
74079;BME280;62437;51.544;-3.276;2022-12-18T07:26:18;100890.42;;;-3.71;77.65
74079;BME280;62437;51.544;-3.276;2022-12-18T07:28:42;100908.45;;;-3.32;75.84
74079;BME280;62437;51.544;-3.276;2022-12-18T07:31:09;100916.25;;;-2.86;77.22
74079;BME280;62437;51.544;-3.276;2022-12-18T07:33:33;100906.33;;;-3.88;77.09
74079;BME280;62437;51.544;-3.276;2022-12-18T07:35:59;100911.96;;;-3.23;74.70
74079;BME280;62437;51.544;-3.276;2022-12-18T07:38:24;100904.57;;;-3.65;77.54
74079;BME280;62437;51.544;-3.276;2022-12-18T07:40:50;100904.89;;;-3.66;76.31
74079;BME280;62437;51.544;-3.276;2022-12-18T07:43:15;100897.57;;;-4.08;78.98
74079;BME280;62437;51.544;-3.276;2022-12-18T07:45:41;100902.39;;;-4.26;79.59
74079;BME280;62437;51.544;-3.276;2022-12-18T07:48:05;100901.20;;;-3.58;77.77
74079;BME280;62437;51.544;-3.276;2022-12-18T07:50:31;100892.36;;;-3.91;77.73
74079;BME280;62437;51.544;-3.276;2022-12-18T07:52:56;100886.84;;;-3.86;79.20
74079;BME280;62437;51.544;-3.276;2022-12-18T07:55:22;100877.70;;;-3.51;77.57
74079;BME280;62437;51.544;-3.276;2022-12-18T07:57:48;100873.68;;;-3.67;78.11
74079;BME280;62437;51.544;-3.276;2022-12-18T08:00:14;100877.41;;;-4.03;78.44
74079;BME280;62437;51.544;-3.276;2022-12-18T08:02:39;100880.77;;;-3.58;76.62
74079;BME280;62437;51.544;-3.276;2022-12-18T08:05:05;100870.42;;;-3.63;81.20
74079;BME280;62437;51.544;-3.276;2022-12-18T08:07:29;100866.04;;;-3.02;74.98
74079;BME280;62437;51.544;-3.276;2022-12-18T08:09:54;100869.65;;;-3.09;75.74
74079;BME280;62437;51.544;-3.276;2022-12-18T08:12:20;100857.08;;;-3.75;80.48
74079;BME280;62437;51.544;-3.276;2022-12-18T08:14:45;100855.28;;;-3.54;77.95
74079;BME280;62437;51.544;-3.276;2022-12-18T08:17:10;100854.43;;;-3.41;76.07
74079;BME280;62437;51.544;-3.276;2022-12-18T08:19:35;100868.11;;;-3.02;75.20
74079;BME280;62437;51.544;-3.276;2022-12-18T08:22:01;100863.88;;;-3.72;78.54
74079;BME280;62437;51.544;-3.276;2022-12-18T08:24:26;100858.96;;;-3.59;77.86
74079;BME280;62437;51.544;-3.276;2022-12-18T08:26:52;100851.11;;;-3.84;78.20
74079;BME280;62437;51.544;-3.276;2022-12-18T08:29:17;100854.25;;;-3.14;75.86
74079;BME280;62437;51.544;-3.276;2022-12-18T08:31:43;100846.28;;;-3.77;78.38
74079;BME280;62437;51.544;-3.276;2022-12-18T08:34:09;100850.67;;;-3.74;80.11
74079;BME280;62437;51.544;-3.276;2022-12-18T08:36:34;100841.08;;;-3.25;76.21
74079;BME280;62437;51.544;-3.276;2022-12-18T08:38:59;100848.68;;;-3.61;78.29
74079;BME280;62437;51.544;-3.276;2022-12-18T08:41:25;100851.80;;;-3.79;79.42
74079;BME280;62437;51.544;-3.276;2022-12-18T08:43:50;100853.26;;;-3.95;78.72
74079;BME280;62437;51.544;-3.276;2022-12-18T08:46:16;100850.20;;;-3.53;77.34
74079;BME280;62437;51.544;-3.276;2022-12-18T08:48:41;100840.29;;;-3.65;78.79
74079;BME280;62437;51.544;-3.276;2022-12-18T08:51:06;100837.06;;;-3.69;77.97
74079;BME280;62437;51.544;-3.276;2022-12-18T08:53:31;100836.19;;;-3.57;77.92
74079;BME280;62437;51.544;-3.276;2022-12-18T08:55:57;100823.35;;;-3.54;77.66
74079;BME280;62437;51.544;-3.276;2022-12-18T08:58:22;100815.70;;;-3.33;76.38
74079;BME280;62437;51.544;-3.276;2022-12-18T09:00:47;100825.62;;;-3.79;78.37
74079;BME280;62437;51.544;-3.276;2022-12-18T09:03:14;100825.61;;;-3.16;74.85
74079;BME280;62437;51.544;-3.276;2022-12-18T09:05:39;100816.25;;;-3.14;76.62
74079;BME280;62437;51.544;-3.276;2022-12-18T09:08:04;100817.96;;;-3.16;76.65
74079;BME280;62437;51.544;-3.276;2022-12-18T09:10:29;100816.78;;;-2.07;70.68
74079;BME280;62437;51.544;-3.276;2022-12-18T09:12:55;100807.98;;;-2.00;70.51
74079;BME280;62437;51.544;-3.276;2022-12-18T09:15:21;100806.88;;;-2.03;70.93
74079;BME280;62437;51.544;-3.276;2022-12-18T09:17:46;100807.68;;;-2.73;73.12
74079;BME280;62437;51.544;-3.276;2022-12-18T09:20:11;100809.70;;;-2.98;75.34
74079;BME280;62437;51.544;-3.276;2022-12-18T09:22:36;100798.70;;;-2.82;74.32
74079;BME280;62437;51.544;-3.276;2022-12-18T09:25:04;100799.56;;;-3.13;74.80
74079;BME280;62437;51.544;-3.276;2022-12-18T09:27:27;100776.41;;;-2.75;73.49
74079;BME280;62437;51.544;-3.276;2022-12-18T09:29:52;100772.53;;;-2.92;73.93
74079;BME280;62437;51.544;-3.276;2022-12-18T09:32:18;100761.11;;;-2.82;74.01
74079;BME280;62437;51.544;-3.276;2022-12-18T09:34:44;100759.85;;;-2.91;79.15
74079;BME280;62437;51.544;-3.276;2022-12-18T09:37:09;100748.86;;;-2.80;76.34
74079;BME280;62437;51.544;-3.276;2022-12-18T09:39:35;100741.09;;;-2.79;73.80
74079;BME280;62437;51.544;-3.276;2022-12-18T09:42:00;100726.13;;;-2.73;74.74
74079;BME280;62437;51.544;-3.276;2022-12-18T09:44:29;100731.72;;;-2.91;73.91
74079;BME280;62437;51.544;-3.276;2022-12-18T09:46:56;100726.92;;;-3.26;79.56
74079;BME280;62437;51.544;-3.276;2022-12-18T09:49:19;100716.91;;;-3.46;77.58
74079;BME280;62437;51.544;-3.276;2022-12-18T09:51:46;100711.09;;;-2.63;73.51
74079;BME280;62437;51.544;-3.276;2022-12-18T09:54:12;100711.86;;;-2.77;77.45
74079;BME280;62437;51.544;-3.276;2022-12-18T09:56:37;100709.95;;;-2.91;73.82
74079;BME280;62437;51.544;-3.276;2022-12-18T09:59:00;100702.38;;;-2.26;71.88
74079;BME280;62437;51.544;-3.276;2022-12-18T10:01:26;100700.88;;;-2.98;74.86
74079;BME280;62437;51.544;-3.276;2022-12-18T10:03:50;100704.23;;;-3.04;75.75
74079;BME280;62437;51.544;-3.276;2022-12-18T10:06:20;100694.01;;;-2.64;74.76
74079;BME280;62437;51.544;-3.276;2022-12-18T10:08:45;100691.58;;;-2.66;75.17
74079;BME280;62437;51.544;-3.276;2022-12-18T10:11:21;100690.12;;;-2.37;71.68
74079;BME280;62437;51.544;-3.276;2022-12-18T10:13:36;100684.85;;;-2.13;70.95
74079;BME280;62437;51.544;-3.276;2022-12-18T10:16:07;100680.84;;;-3.02;75.25
74079;BME280;62437;51.544;-3.276;2022-12-18T10:18:29;100670.35;;;-3.07;75.63
74079;BME280;62437;51.544;-3.276;2022-12-18T10:20:49;100670.52;;;-3.27;76.94
74079;BME280;62437;51.544;-3.276;2022-12-18T10:23:18;100658.95;;;-3.44;78.31
74079;BME280;62437;51.544;-3.276;2022-12-18T10:25:51;100649.38;;;-2.93;74.83
74079;BME280;62437;51.544;-3.276;2022-12-18T10:28:10;100653.89;;;-2.96;77.12
74079;BME280;62437;51.544;-3.276;2022-12-18T10:30:29;100639.33;;;-2.70;73.09
74079;BME280;62437;51.544;-3.276;2022-12-18T10:33:00;100636.23;;;-2.87;79.28
74079;BME280;62437;51.544;-3.276;2022-12-18T10:35:22;100630.61;;;-2.69;74.22
74079;BME280;62437;51.544;-3.276;2022-12-18T10:37:59;100630.87;;;-3.24;77.17
74079;BME280;62437;51.544;-3.276;2022-12-18T10:40:13;100623.91;;;-3.28;77.92
74079;BME280;62437;51.544;-3.276;2022-12-18T10:42:37;100623.69;;;-2.94;75.12
74079;BME280;62437;51.544;-3.276;2022-12-18T10:45:06;100622.82;;;-3.36;77.89
74079;BME280;62437;51.544;-3.276;2022-12-18T10:47:27;100626.03;;;-3.12;78.97
74079;BME280;62437;51.544;-3.276;2022-12-18T10:49:54;100625.67;;;-3.69;79.73
74079;BME280;62437;51.544;-3.276;2022-12-18T10:52:21;100609.71;;;-2.77;76.36
74079;BME280;62437;51.544;-3.276;2022-12-18T10:54:50;100602.73;;;-3.18;84.30
74079;BME280;62437;51.544;-3.276;2022-12-18T10:57:16;100591.38;;;-3.32;84.11
74079;BME280;62437;51.544;-3.276;2022-12-18T11:02:07;100576.81;;;-1.84;74.80
74079;BME280;62437;51.544;-3.276;2022-12-18T11:04:29;100568.51;;;-1.83;73.21
74079;BME280;62437;51.544;-3.276;2022-12-18T11:06:55;100572.91;;;-2.72;78.52
74079;BME280;62437;51.544;-3.276;2022-12-18T11:09:20;100560.75;;;-2.49;77.22
74079;BME280;62437;51.544;-3.276;2022-12-18T11:11:48;100554.13;;;-2.72;74.66
74079;BME280;62437;51.544;-3.276;2022-12-18T11:14:16;100548.29;;;-2.83;73.37
74079;BME280;62437;51.544;-3.276;2022-12-18T11:16:37;100541.23;;;-3.05;76.02
74079;BME280;62437;51.544;-3.276;2022-12-18T11:19:12;100529.85;;;-2.37;74.09
74079;BME280;62437;51.544;-3.276;2022-12-18T11:21:25;100527.67;;;-2.15;73.28
74079;BME280;62437;51.544;-3.276;2022-12-18T11:23:52;100507.79;;;-2.64;74.78
74079;BME280;62437;51.544;-3.276;2022-12-18T11:26:16;100508.24;;;-2.33;73.01
74079;BME280;62437;51.544;-3.276;2022-12-18T11:28:43;100500.04;;;-2.51;82.12
74079;BME280;62437;51.544;-3.276;2022-12-18T11:33:32;100492.54;;;-3.40;78.81
74079;BME280;62437;51.544;-3.276;2022-12-18T11:36:00;100487.25;;;-3.11;88.09
74079;BME280;62437;51.544;-3.276;2022-12-18T11:38:25;100477.44;;;-2.58;75.56
74079;BME280;62437;51.544;-3.276;2022-12-18T11:40:53;100474.92;;;-2.66;78.16
74079;BME280;62437;51.544;-3.276;2022-12-18T11:43:17;100465.90;;;-1.94;72.97
74079;BME280;62437;51.544;-3.276;2022-12-18T11:45:43;100472.67;;;-2.38;79.58
74079;BME280;62437;51.544;-3.276;2022-12-18T11:48:12;100460.12;;;-2.80;78.88
74079;BME280;62437;51.544;-3.276;2022-12-18T11:50:33;100451.63;;;-2.75;74.74
74079;BME280;62437;51.544;-3.276;2022-12-18T11:52:55;100441.42;;;-2.71;76.09
74079;BME280;62437;51.544;-3.276;2022-12-18T11:55:28;100440.63;;;-2.89;79.20
74079;BME280;62437;51.544;-3.276;2022-12-18T11:57:52;100425.56;;;-2.80;81.75
74079;BME280;62437;51.544;-3.276;2022-12-18T12:00:18;100425.06;;;-2.19;74.87
74079;BME280;62437;51.544;-3.276;2022-12-18T12:05:16;100414.41;;;-2.44;73.63
74079;BME280;62437;51.544;-3.276;2022-12-18T12:07:38;100413.57;;;-2.50;75.20
74079;BME280;62437;51.544;-3.276;2022-12-18T12:10:00;100407.01;;;-3.05;77.40
74079;BME280;62437;51.544;-3.276;2022-12-18T12:12:30;100406.22;;;-2.97;81.75
74079;BME280;62437;51.544;-3.276;2022-12-18T12:14:52;100384.53;;;-3.25;76.82
74079;BME280;62437;51.544;-3.276;2022-12-18T12:17:17;100372.67;;;-2.64;76.82
74079;BME280;62437;51.544;-3.276;2022-12-18T12:19:44;100366.89;;;-2.58;74.60
74079;BME280;62437;51.544;-3.276;2022-12-18T12:22:09;100368.53;;;-2.50;76.43
74079;BME280;62437;51.544;-3.276;2022-12-18T12:24:37;100361.71;;;-2.36;78.25
74079;BME280;62437;51.544;-3.276;2022-12-18T12:27:00;100351.63;;;-1.98;74.82
74079;BME280;62437;51.544;-3.276;2022-12-18T12:29:29;100342.41;;;-2.40;74.43
74079;BME280;62437;51.544;-3.276;2022-12-18T12:31:55;100345.87;;;-2.27;74.08
74079;BME280;62437;51.544;-3.276;2022-12-18T12:34:16;100333.63;;;-2.25;77.14
74079;BME280;62437;51.544;-3.276;2022-12-18T12:36:41;100333.34;;;-1.70;71.85
74079;BME280;62437;51.544;-3.276;2022-12-18T12:39:05;100326.73;;;-1.88;72.58